Terminal Aerodrome Forecast
Issued by NWS

Current Version | Previous Version | Text Only | Print | Product List | Glossary On
Versions: 1 2 3 4 5 6 7 8 9 10 11 12 13 14 15 16 17
000
FTUS43 KILX 102338
TAFCMI
TAF
KCMI 102338Z 1100/1124 14011KT P6SM VCSH OVC040
     FM111400 15013KT P6SM VCSH OVC040
     FM111700 18012G22KT 4SM -SNPL BR OVC025
     FM112000 18012G22KT 3SM -RA BR OVC015=

USA.gov is the U.S. government's official web portal to all federal, state and local government web resources and services.